N626PC RPMD-RPVD
Flight info
| Callsign | N626PC |
|---|---|
| Flight time | 1h 7m |
| Altitude | 8500 |
| Route | VFR |
| Aircraft | AEST/L-SDF/C |
Departure
| Time | 2026-05-05 07:55 |
|---|---|
| Airport | Francisco Bangoy International Airport (RPMD) |
Arrival
| Time | 2026-05-05 09:02 |
|---|---|
| Airport | Sibulan Airport (RPVD) |
| Time | Latitude | Longitude | Altitude | Speed | Heading |
|---|---|---|---|---|---|
| 2026-05-05 07:29 | 7.12620 | 125.65470 | 96 ft | 0 kts | 266° |
| 2026-05-05 07:38 | 7.12620 | 125.65466 | 96 ft | 0 kts | 266° |
| 2026-05-05 07:38 | 7.12626 | 125.65456 | 96 ft | 0 kts | 347° |
| 2026-05-05 07:40 | 7.12631 | 125.65455 | 96 ft | 4 kts | 347° |
| 2026-05-05 07:40 | 7.12671 | 125.65446 | 96 ft | 6 kts | 348° |
| 2026-05-05 07:41 | 7.12724 | 125.65435 | 96 ft | 11 kts | 348° |
| 2026-05-05 07:41 | 7.12781 | 125.65423 | 96 ft | 2 kts | 349° |
| 2026-05-05 07:41 | 7.12825 | 125.65415 | 96 ft | 7 kts | 349° |
| 2026-05-05 07:41 | 7.12895 | 125.65401 | 96 ft | 11 kts | 349° |
| 2026-05-05 07:42 | 7.12960 | 125.65388 | 96 ft | 7 kts | 348° |
| 2026-05-05 07:42 | 7.13015 | 125.65376 | 96 ft | 9 kts | 347° |
| 2026-05-05 07:42 | 7.13066 | 125.65343 | 95 ft | 8 kts | 320° |
| 2026-05-05 07:42 | 7.13066 | 125.65298 | 95 ft | 11 kts | 229° |
| 2026-05-05 07:43 | 7.13007 | 125.65228 | 96 ft | 15 kts | 229° |
| 2026-05-05 07:43 | 7.12952 | 125.65166 | 96 ft | 10 kts | 227° |
| 2026-05-05 07:43 | 7.12925 | 125.65137 | 96 ft | 1 kts | 231° |
| 2026-05-05 07:43 | 7.12926 | 125.65124 | 96 ft | 0 kts | 294° |
| 2026-05-05 07:50 | 7.12943 | 125.65086 | 96 ft | 12 kts | 294° |
| 2026-05-05 07:51 | 7.12906 | 125.64985 | 96 ft | 23 kts | 227° |
| 2026-05-05 07:51 | 7.12771 | 125.64829 | 97 ft | 34 kts | 229° |
| 2026-05-05 07:51 | 7.12606 | 125.64639 | 95 ft | 36 kts | 229° |
| 2026-05-05 07:51 | 7.12444 | 125.64449 | 94 ft | 35 kts | 230° |
| 2026-05-05 07:52 | 7.12291 | 125.64272 | 96 ft | 28 kts | 229° |
| 2026-05-05 07:52 | 7.12178 | 125.64143 | 96 ft | 24 kts | 229° |
| 2026-05-05 07:52 | 7.12072 | 125.64021 | 98 ft | 23 kts | 229° |
| 2026-05-05 07:52 | 7.11968 | 125.63898 | 97 ft | 22 kts | 230° |
| 2026-05-05 07:53 | 7.11897 | 125.63831 | 97 ft | 9 kts | 264° |
| 2026-05-05 07:53 | 7.11924 | 125.63847 | 97 ft | 4 kts | 55° |
| 2026-05-05 07:53 | 7.11927 | 125.63850 | 97 ft | 0 kts | 47° |
| 2026-05-05 07:53 | 7.11977 | 125.63907 | 97 ft | 44 kts | 49° |
| 2026-05-05 07:54 | 7.12321 | 125.64306 | 105 ft | 96 kts | 50° |
| 2026-05-05 07:54 | 7.12797 | 125.64853 | 201 ft | 110 kts | 51° |
| 2026-05-05 07:54 | 7.13345 | 125.65486 | 446 ft | 127 kts | 50° |
| 2026-05-05 07:54 | 7.13974 | 125.66171 | 654 ft | 140 kts | 39° |
| 2026-05-05 07:55 | 7.14954 | 125.66411 | 793 ft | 157 kts | 354° |
| 2026-05-05 07:55 | 7.15937 | 125.65918 | 1018 ft | 168 kts | 315° |
| 2026-05-05 07:55 | 7.16482 | 125.64860 | 1188 ft | 176 kts | 284° |
| 2026-05-05 07:55 | 7.16662 | 125.63655 | 1430 ft | 173 kts | 274° |
| 2026-05-05 07:56 | 7.16731 | 125.62435 | 1555 ft | 177 kts | 272° |
| 2026-05-05 07:56 | 7.16755 | 125.61174 | 1587 ft | 184 kts | 270° |
| 2026-05-05 07:56 | 7.16765 | 125.59863 | 1602 ft | 191 kts | 271° |
| 2026-05-05 07:56 | 7.16912 | 125.58541 | 1757 ft | 187 kts | 281° |
| 2026-05-05 07:57 | 7.17212 | 125.57293 | 1982 ft | 182 kts | 283° |
| 2026-05-05 07:57 | 7.17476 | 125.56048 | 2132 ft | 181 kts | 282° |
| 2026-05-05 07:57 | 7.17693 | 125.54808 | 2322 ft | 179 kts | 279° |
| 2026-05-05 07:57 | 7.17851 | 125.53582 | 2527 ft | 175 kts | 278° |
| 2026-05-05 07:58 | 7.17990 | 125.52376 | 2733 ft | 172 kts | 278° |
| 2026-05-05 07:58 | 7.18123 | 125.51186 | 2941 ft | 169 kts | 278° |
| 2026-05-05 07:58 | 7.18314 | 125.50026 | 3143 ft | 168 kts | 284° |
| 2026-05-05 07:58 | 7.18578 | 125.48841 | 3260 ft | 178 kts | 285° |
| 2026-05-05 07:59 | 7.18888 | 125.47636 | 3451 ft | 177 kts | 288° |
| 2026-05-05 07:59 | 7.19257 | 125.46472 | 3672 ft | 174 kts | 292° |
| 2026-05-05 07:59 | 7.19700 | 125.45334 | 3808 ft | 175 kts | 294° |
| 2026-05-05 07:59 | 7.20146 | 125.44204 | 3998 ft | 173 kts | 294° |
| 2026-05-05 08:00 | 7.20592 | 125.43085 | 4152 ft | 172 kts | 295° |
| 2026-05-05 08:00 | 7.21022 | 125.41961 | 4304 ft | 172 kts | 291° |
| 2026-05-05 08:00 | 7.21384 | 125.40807 | 4474 ft | 173 kts | 290° |
| 2026-05-05 08:00 | 7.21732 | 125.39661 | 4649 ft | 173 kts | 289° |
| 2026-05-05 08:01 | 7.22081 | 125.38500 | 4810 ft | 173 kts | 289° |
| 2026-05-05 08:01 | 7.22435 | 125.37328 | 4971 ft | 173 kts | 289° |
| 2026-05-05 08:01 | 7.22781 | 125.36185 | 5124 ft | 173 kts | 289° |
| 2026-05-05 08:01 | 7.23127 | 125.35018 | 5283 ft | 174 kts | 288° |
| 2026-05-05 08:02 | 7.23473 | 125.33855 | 5451 ft | 173 kts | 288° |
| 2026-05-05 08:02 | 7.23802 | 125.32692 | 5627 ft | 173 kts | 287° |
| 2026-05-05 08:02 | 7.24105 | 125.31523 | 5789 ft | 172 kts | 287° |
| 2026-05-05 08:02 | 7.24406 | 125.30363 | 5959 ft | 171 kts | 287° |
| 2026-05-05 08:03 | 7.24704 | 125.29199 | 6112 ft | 172 kts | 287° |
| 2026-05-05 08:03 | 7.25002 | 125.28033 | 6259 ft | 171 kts | 287° |
| 2026-05-05 08:03 | 7.25296 | 125.26870 | 6400 ft | 172 kts | 287° |
| 2026-05-05 08:03 | 7.25586 | 125.25704 | 6518 ft | 172 kts | 287° |
| 2026-05-05 08:04 | 7.25871 | 125.24535 | 6657 ft | 172 kts | 288° |
| 2026-05-05 08:04 | 7.26240 | 125.23378 | 6784 ft | 175 kts | 290° |
| 2026-05-05 08:04 | 7.26608 | 125.22231 | 6916 ft | 174 kts | 289° |
| 2026-05-05 08:04 | 7.26964 | 125.21063 | 7050 ft | 175 kts | 289° |
| 2026-05-05 08:05 | 7.27315 | 125.19896 | 7184 ft | 174 kts | 289° |
| 2026-05-05 08:05 | 7.27667 | 125.18730 | 7322 ft | 173 kts | 289° |
| 2026-05-05 08:05 | 7.28016 | 125.17575 | 7450 ft | 172 kts | 289° |
| 2026-05-05 08:05 | 7.28366 | 125.16421 | 7581 ft | 172 kts | 289° |
| 2026-05-05 08:06 | 7.28713 | 125.15271 | 7700 ft | 171 kts | 289° |
| 2026-05-05 08:06 | 7.29059 | 125.14123 | 7820 ft | 171 kts | 289° |
| 2026-05-05 08:06 | 7.29407 | 125.12974 | 7941 ft | 171 kts | 289° |
| 2026-05-05 08:06 | 7.29753 | 125.11829 | 8057 ft | 171 kts | 289° |
| 2026-05-05 08:07 | 7.30098 | 125.10689 | 8158 ft | 170 kts | 289° |
| 2026-05-05 08:07 | 7.30441 | 125.09552 | 8272 ft | 169 kts | 289° |
| 2026-05-05 08:07 | 7.30782 | 125.08420 | 8380 ft | 169 kts | 289° |
| 2026-05-05 08:07 | 7.31126 | 125.07283 | 8479 ft | 170 kts | 289° |
| 2026-05-05 08:08 | 7.31474 | 125.06134 | 8552 ft | 173 kts | 289° |
| 2026-05-05 08:08 | 7.31835 | 125.04941 | 8539 ft | 184 kts | 289° |
| 2026-05-05 08:08 | 7.32216 | 125.03679 | 8498 ft | 192 kts | 289° |
| 2026-05-05 08:08 | 7.32610 | 125.02375 | 8493 ft | 197 kts | 288° |
| 2026-05-05 08:09 | 7.33006 | 125.01064 | 8501 ft | 200 kts | 288° |
| 2026-05-05 08:09 | 7.33415 | 124.99713 | 8501 ft | 203 kts | 288° |
| 2026-05-05 08:09 | 7.33829 | 124.98338 | 8501 ft | 208 kts | 288° |
| 2026-05-05 08:09 | 7.34257 | 124.96919 | 8499 ft | 210 kts | 288° |
| 2026-05-05 08:10 | 7.34678 | 124.95524 | 8499 ft | 211 kts | 288° |
| 2026-05-05 08:10 | 7.35105 | 124.94106 | 8504 ft | 212 kts | 288° |
| 2026-05-05 08:10 | 7.35534 | 124.92687 | 8491 ft | 212 kts | 288° |
| 2026-05-05 08:10 | 7.35963 | 124.91265 | 8490 ft | 212 kts | 288° |
| 2026-05-05 08:11 | 7.36391 | 124.89845 | 8494 ft | 212 kts | 288° |
| 2026-05-05 08:11 | 7.36822 | 124.88417 | 8493 ft | 213 kts | 288° |
| 2026-05-05 08:11 | 7.37253 | 124.86989 | 8492 ft | 213 kts | 288° |
| 2026-05-05 08:11 | 7.37683 | 124.85559 | 8494 ft | 214 kts | 288° |
| 2026-05-05 08:12 | 7.38117 | 124.84124 | 8495 ft | 214 kts | 288° |
| 2026-05-05 08:12 | 7.38550 | 124.82688 | 8495 ft | 214 kts | 288° |
| 2026-05-05 08:12 | 7.38982 | 124.81253 | 8489 ft | 214 kts | 288° |
| 2026-05-05 08:12 | 7.39415 | 124.79815 | 8495 ft | 214 kts | 288° |
| 2026-05-05 08:13 | 7.39848 | 124.78378 | 8498 ft | 214 kts | 288° |
| 2026-05-05 08:13 | 7.40282 | 124.76938 | 8485 ft | 215 kts | 288° |
| 2026-05-05 08:13 | 7.40716 | 124.75496 | 8489 ft | 215 kts | 288° |
| 2026-05-05 08:13 | 7.41149 | 124.74058 | 8495 ft | 214 kts | 288° |
| 2026-05-05 08:14 | 7.41582 | 124.72621 | 8506 ft | 214 kts | 288° |
| 2026-05-05 08:14 | 7.42016 | 124.71187 | 8501 ft | 214 kts | 288° |
| 2026-05-05 08:14 | 7.42447 | 124.69748 | 8501 ft | 214 kts | 288° |
| 2026-05-05 08:14 | 7.42878 | 124.68314 | 8496 ft | 214 kts | 288° |
| 2026-05-05 08:15 | 7.43304 | 124.66899 | 8510 ft | 213 kts | 288° |
| 2026-05-05 08:15 | 7.43736 | 124.65464 | 8508 ft | 215 kts | 288° |
| 2026-05-05 08:15 | 7.44169 | 124.64025 | 8506 ft | 215 kts | 288° |
| 2026-05-05 08:15 | 7.44461 | 124.63054 | 8511 ft | 215 kts | 288° |
| 2026-05-05 08:16 | 7.44895 | 124.61608 | 8511 ft | 215 kts | 289° |
| 2026-05-05 08:16 | 7.45333 | 124.60170 | 8512 ft | 214 kts | 288° |
| 2026-05-05 08:16 | 7.45902 | 124.58250 | 8516 ft | 217 kts | 289° |
| 2026-05-05 08:16 | 7.46196 | 124.57271 | 8519 ft | 216 kts | 289° |
| 2026-05-05 08:17 | 7.46631 | 124.55838 | 8512 ft | 217 kts | 289° |
| 2026-05-05 08:17 | 7.47071 | 124.54385 | 8514 ft | 216 kts | 289° |
| 2026-05-05 08:17 | 7.47509 | 124.52945 | 8509 ft | 215 kts | 288° |
| 2026-05-05 08:17 | 7.47939 | 124.51498 | 8516 ft | 215 kts | 288° |
| 2026-05-05 08:18 | 7.48369 | 124.50052 | 8511 ft | 216 kts | 288° |
| 2026-05-05 08:18 | 7.48802 | 124.48599 | 8516 ft | 217 kts | 289° |
| 2026-05-05 08:18 | 7.49241 | 124.47151 | 8524 ft | 217 kts | 289° |
| 2026-05-05 08:18 | 7.49681 | 124.45693 | 8515 ft | 217 kts | 289° |
| 2026-05-05 08:19 | 7.50122 | 124.44242 | 8517 ft | 215 kts | 288° |
| 2026-05-05 08:19 | 7.50554 | 124.42793 | 8518 ft | 217 kts | 288° |
| 2026-05-05 08:19 | 7.50984 | 124.41338 | 8518 ft | 217 kts | 289° |
| 2026-05-05 08:19 | 7.51423 | 124.39878 | 8523 ft | 217 kts | 290° |
| 2026-05-05 08:20 | 7.51866 | 124.38415 | 8519 ft | 218 kts | 290° |
| 2026-05-05 08:20 | 7.52308 | 124.36954 | 8516 ft | 218 kts | 289° |
| 2026-05-05 08:20 | 7.52756 | 124.35504 | 8540 ft | 216 kts | 288° |
| 2026-05-05 08:20 | 7.53185 | 124.34054 | 8537 ft | 216 kts | 287° |
| 2026-05-05 08:21 | 7.53612 | 124.32608 | 8545 ft | 215 kts | 287° |
| 2026-05-05 08:21 | 7.54042 | 124.31151 | 8543 ft | 218 kts | 288° |
| 2026-05-05 08:21 | 7.54481 | 124.29694 | 8539 ft | 218 kts | 288° |
| 2026-05-05 08:21 | 7.54921 | 124.28233 | 8540 ft | 218 kts | 288° |
| 2026-05-05 08:22 | 7.55363 | 124.26781 | 8539 ft | 216 kts | 288° |
| 2026-05-05 08:22 | 7.55794 | 124.25334 | 8537 ft | 217 kts | 288° |
| 2026-05-05 08:22 | 7.56229 | 124.23882 | 8543 ft | 216 kts | 288° |
| 2026-05-05 08:22 | 7.56663 | 124.22439 | 8544 ft | 215 kts | 288° |
| 2026-05-05 08:23 | 7.57094 | 124.21002 | 8531 ft | 214 kts | 287° |
| 2026-05-05 08:23 | 7.57591 | 124.19593 | 8518 ft | 214 kts | 301° |
| 2026-05-05 08:23 | 7.58559 | 124.18483 | 8534 ft | 211 kts | 319° |
| 2026-05-05 08:23 | 7.59654 | 124.17527 | 8531 ft | 211 kts | 325° |
| 2026-05-05 08:24 | 7.60961 | 124.16855 | 8524 ft | 211 kts | 339° |
| 2026-05-05 08:24 | 7.62321 | 124.16308 | 8526 ft | 210 kts | 340° |
| 2026-05-05 08:24 | 7.63661 | 124.15727 | 8531 ft | 210 kts | 337° |
| 2026-05-05 08:24 | 7.64979 | 124.15093 | 8533 ft | 210 kts | 335° |
| 2026-05-05 08:25 | 7.66292 | 124.14442 | 8532 ft | 211 kts | 335° |
| 2026-05-05 08:25 | 7.67609 | 124.13798 | 8544 ft | 210 kts | 335° |
| 2026-05-05 08:25 | 7.68924 | 124.13155 | 8544 ft | 210 kts | 336° |
| 2026-05-05 08:25 | 7.70239 | 124.12515 | 8546 ft | 210 kts | 335° |
| 2026-05-05 08:26 | 7.71555 | 124.11874 | 8543 ft | 210 kts | 335° |
| 2026-05-05 08:26 | 7.72864 | 124.11230 | 8541 ft | 209 kts | 335° |
| 2026-05-05 08:26 | 7.74169 | 124.10594 | 8535 ft | 209 kts | 335° |
| 2026-05-05 08:26 | 7.75481 | 124.09954 | 8530 ft | 210 kts | 335° |
| 2026-05-05 08:27 | 7.76794 | 124.09312 | 8530 ft | 210 kts | 336° |
| 2026-05-05 08:27 | 7.78105 | 124.08676 | 8536 ft | 209 kts | 335° |
| 2026-05-05 08:27 | 7.79419 | 124.08034 | 8531 ft | 211 kts | 335° |
| 2026-05-05 08:27 | 7.80735 | 124.07390 | 8539 ft | 210 kts | 335° |
| 2026-05-05 08:28 | 7.82051 | 124.06749 | 8535 ft | 210 kts | 335° |
| 2026-05-05 08:28 | 7.83368 | 124.06105 | 8540 ft | 211 kts | 335° |
| 2026-05-05 08:28 | 7.84686 | 124.05459 | 8533 ft | 210 kts | 335° |
| 2026-05-05 08:28 | 7.86001 | 124.04817 | 8541 ft | 210 kts | 335° |
| 2026-05-05 08:29 | 7.87316 | 124.04171 | 8537 ft | 210 kts | 336° |
| 2026-05-05 08:29 | 7.88629 | 124.03527 | 8543 ft | 210 kts | 336° |
| 2026-05-05 08:29 | 7.89950 | 124.02891 | 8544 ft | 210 kts | 336° |
| 2026-05-05 08:30 | 7.92567 | 124.01610 | 8543 ft | 210 kts | 336° |
| 2026-05-05 08:30 | 7.93889 | 124.00970 | 8547 ft | 210 kts | 335° |
| 2026-05-05 08:30 | 7.95206 | 124.00320 | 8538 ft | 211 kts | 335° |
| 2026-05-05 08:30 | 7.96522 | 123.99671 | 8538 ft | 211 kts | 336° |
| 2026-05-05 08:31 | 7.97846 | 123.99031 | 8535 ft | 211 kts | 336° |
| 2026-05-05 08:31 | 7.99167 | 123.98382 | 8525 ft | 212 kts | 336° |
| 2026-05-05 08:31 | 8.00494 | 123.97736 | 8525 ft | 210 kts | 336° |
| 2026-05-05 08:31 | 8.01808 | 123.97096 | 8537 ft | 209 kts | 336° |
| 2026-05-05 08:32 | 8.03120 | 123.96452 | 8537 ft | 210 kts | 336° |
| 2026-05-05 08:32 | 8.04436 | 123.95808 | 8532 ft | 211 kts | 336° |
| 2026-05-05 08:32 | 8.05755 | 123.95168 | 8536 ft | 210 kts | 335° |
| 2026-05-05 08:32 | 8.07064 | 123.94523 | 8543 ft | 209 kts | 335° |
| 2026-05-05 08:33 | 8.08371 | 123.93878 | 8539 ft | 210 kts | 336° |
| 2026-05-05 08:33 | 8.09690 | 123.93241 | 8537 ft | 210 kts | 336° |
| 2026-05-05 08:33 | 8.11001 | 123.92594 | 8540 ft | 210 kts | 336° |
| 2026-05-05 08:33 | 8.12315 | 123.91952 | 8538 ft | 210 kts | 336° |
| 2026-05-05 08:34 | 8.13617 | 123.91323 | 8536 ft | 210 kts | 336° |
| 2026-05-05 08:34 | 8.14931 | 123.90677 | 8538 ft | 209 kts | 336° |
| 2026-05-05 08:34 | 8.16240 | 123.90036 | 8536 ft | 209 kts | 336° |
| 2026-05-05 08:34 | 8.17552 | 123.89392 | 8536 ft | 209 kts | 336° |
| 2026-05-05 08:35 | 8.18860 | 123.88755 | 8532 ft | 209 kts | 336° |
| 2026-05-05 08:35 | 8.20169 | 123.88108 | 8533 ft | 210 kts | 336° |
| 2026-05-05 08:35 | 8.21488 | 123.87467 | 8535 ft | 210 kts | 336° |
| 2026-05-05 08:35 | 8.22803 | 123.86819 | 8536 ft | 210 kts | 336° |
| 2026-05-05 08:36 | 8.24122 | 123.86172 | 8535 ft | 210 kts | 337° |
| 2026-05-05 08:36 | 8.25442 | 123.85537 | 8535 ft | 210 kts | 336° |
| 2026-05-05 08:36 | 8.26776 | 123.84933 | 8539 ft | 210 kts | 345° |
| 2026-05-05 08:36 | 8.28210 | 123.84693 | 8536 ft | 209 kts | 355° |
| 2026-05-05 08:37 | 8.29659 | 123.84511 | 8531 ft | 209 kts | 354° |
| 2026-05-05 08:37 | 8.31099 | 123.84328 | 8537 ft | 208 kts | 355° |
| 2026-05-05 08:37 | 8.32539 | 123.84155 | 8531 ft | 209 kts | 355° |
| 2026-05-05 08:37 | 8.33979 | 123.83981 | 8534 ft | 208 kts | 355° |
| 2026-05-05 08:38 | 8.35420 | 123.83809 | 8533 ft | 209 kts | 355° |
| 2026-05-05 08:38 | 8.36869 | 123.83632 | 8532 ft | 210 kts | 355° |
| 2026-05-05 08:38 | 8.38318 | 123.83456 | 8535 ft | 210 kts | 354° |
| 2026-05-05 08:38 | 8.39763 | 123.83272 | 8532 ft | 210 kts | 355° |
| 2026-05-05 08:39 | 8.41207 | 123.83060 | 8522 ft | 209 kts | 347° |
| 2026-05-05 08:39 | 8.42594 | 123.82615 | 8531 ft | 210 kts | 344° |
| 2026-05-05 08:39 | 8.43983 | 123.82162 | 8529 ft | 210 kts | 344° |
| 2026-05-05 08:39 | 8.45366 | 123.81699 | 8532 ft | 210 kts | 344° |
| 2026-05-05 08:40 | 8.46753 | 123.81242 | 8531 ft | 210 kts | 343° |
| 2026-05-05 08:40 | 8.48082 | 123.80656 | 8526 ft | 209 kts | 328° |
| 2026-05-05 08:40 | 8.49151 | 123.79658 | 8543 ft | 211 kts | 315° |
| 2026-05-05 08:40 | 8.50143 | 123.78560 | 8535 ft | 213 kts | 314° |
| 2026-05-05 08:41 | 8.51139 | 123.77457 | 8527 ft | 213 kts | 314° |
| 2026-05-05 08:41 | 8.52133 | 123.76345 | 8530 ft | 214 kts | 314° |
| 2026-05-05 08:41 | 8.53131 | 123.75225 | 8525 ft | 215 kts | 314° |
| 2026-05-05 08:41 | 8.54136 | 123.74103 | 8523 ft | 215 kts | 314° |
| 2026-05-05 08:42 | 8.55140 | 123.72986 | 8530 ft | 215 kts | 314° |
| 2026-05-05 08:42 | 8.56144 | 123.71865 | 8530 ft | 215 kts | 314° |
| 2026-05-05 08:42 | 8.57151 | 123.70745 | 8531 ft | 215 kts | 314° |
| 2026-05-05 08:42 | 8.58158 | 123.69622 | 8522 ft | 216 kts | 314° |
| 2026-05-05 08:43 | 8.59153 | 123.68515 | 8528 ft | 215 kts | 314° |
| 2026-05-05 08:43 | 8.60171 | 123.67387 | 8525 ft | 215 kts | 314° |
| 2026-05-05 08:43 | 8.61173 | 123.66266 | 8524 ft | 214 kts | 314° |
| 2026-05-05 08:43 | 8.62160 | 123.65165 | 8524 ft | 214 kts | 314° |
| 2026-05-05 08:44 | 8.63162 | 123.64046 | 8527 ft | 215 kts | 314° |
| 2026-05-05 08:44 | 8.64167 | 123.62925 | 8524 ft | 215 kts | 314° |
| 2026-05-05 08:44 | 8.65173 | 123.61806 | 8525 ft | 215 kts | 314° |
| 2026-05-05 08:44 | 8.66178 | 123.60687 | 8526 ft | 215 kts | 314° |
| 2026-05-05 08:45 | 8.67233 | 123.59618 | 8522 ft | 215 kts | 323° |
| 2026-05-05 08:45 | 8.68403 | 123.58686 | 8527 ft | 214 kts | 323° |
| 2026-05-05 08:45 | 8.69573 | 123.57760 | 8525 ft | 214 kts | 324° |
| 2026-05-05 08:45 | 8.70745 | 123.56831 | 8524 ft | 213 kts | 324° |
| 2026-05-05 08:46 | 8.71912 | 123.55906 | 8520 ft | 213 kts | 324° |
| 2026-05-05 08:46 | 8.73081 | 123.54980 | 8520 ft | 213 kts | 324° |
| 2026-05-05 08:46 | 8.74248 | 123.54061 | 8516 ft | 212 kts | 324° |
| 2026-05-05 08:46 | 8.75410 | 123.53135 | 8468 ft | 213 kts | 324° |
| 2026-05-05 08:47 | 8.76578 | 123.52209 | 8406 ft | 214 kts | 324° |
| 2026-05-05 08:47 | 8.77750 | 123.51280 | 8330 ft | 214 kts | 324° |
| 2026-05-05 08:47 | 8.78921 | 123.50348 | 8239 ft | 215 kts | 324° |
| 2026-05-05 08:47 | 8.80081 | 123.49430 | 8154 ft | 214 kts | 324° |
| 2026-05-05 08:48 | 8.81255 | 123.48499 | 8074 ft | 214 kts | 324° |
| 2026-05-05 08:48 | 8.82430 | 123.47563 | 7992 ft | 215 kts | 324° |
| 2026-05-05 08:48 | 8.83605 | 123.46633 | 7912 ft | 215 kts | 324° |
| 2026-05-05 08:48 | 8.84781 | 123.45701 | 7830 ft | 215 kts | 324° |
| 2026-05-05 08:49 | 8.85957 | 123.44764 | 7755 ft | 215 kts | 324° |
| 2026-05-05 08:49 | 8.87136 | 123.43825 | 7663 ft | 216 kts | 324° |
| 2026-05-05 08:49 | 8.88317 | 123.42890 | 7575 ft | 215 kts | 324° |
| 2026-05-05 08:49 | 8.89496 | 123.41954 | 7486 ft | 215 kts | 324° |
| 2026-05-05 08:50 | 8.90673 | 123.41020 | 7394 ft | 215 kts | 324° |
| 2026-05-05 08:50 | 8.91846 | 123.40088 | 7293 ft | 214 kts | 324° |
| 2026-05-05 08:50 | 8.93019 | 123.39158 | 7188 ft | 214 kts | 325° |
| 2026-05-05 08:50 | 8.94191 | 123.38226 | 7084 ft | 214 kts | 325° |
| 2026-05-05 08:51 | 8.95365 | 123.37293 | 6955 ft | 215 kts | 325° |
| 2026-05-05 08:51 | 8.96541 | 123.36360 | 6833 ft | 215 kts | 325° |
| 2026-05-05 08:51 | 8.97705 | 123.35436 | 6723 ft | 215 kts | 325° |
| 2026-05-05 08:51 | 8.98879 | 123.34502 | 6607 ft | 215 kts | 325° |
| 2026-05-05 08:52 | 9.00058 | 123.33564 | 6498 ft | 215 kts | 325° |
| 2026-05-05 08:52 | 9.01239 | 123.32625 | 6371 ft | 216 kts | 325° |
| 2026-05-05 08:52 | 9.02421 | 123.31687 | 6243 ft | 216 kts | 325° |
| 2026-05-05 08:52 | 9.03604 | 123.30747 | 6087 ft | 216 kts | 325° |
| 2026-05-05 08:53 | 9.04790 | 123.29804 | 5935 ft | 216 kts | 325° |
| 2026-05-05 08:53 | 9.05973 | 123.28871 | 5808 ft | 215 kts | 326° |
| 2026-05-05 08:53 | 9.07157 | 123.27966 | 5684 ft | 212 kts | 328° |
| 2026-05-05 08:53 | 9.08427 | 123.27222 | 5542 ft | 210 kts | 341° |
| 2026-05-05 08:54 | 9.09810 | 123.26852 | 5362 ft | 202 kts | 354° |
| 2026-05-05 08:54 | 9.11190 | 123.26627 | 5143 ft | 199 kts | 355° |
| 2026-05-05 08:54 | 9.12557 | 123.26465 | 4918 ft | 197 kts | 1° |
| 2026-05-05 08:54 | 9.13923 | 123.26513 | 4667 ft | 197 kts | 10° |
| 2026-05-05 08:55 | 9.15261 | 123.26749 | 4433 ft | 194 kts | 15° |
| 2026-05-05 08:55 | 9.16563 | 123.27034 | 4219 ft | 190 kts | 15° |
| 2026-05-05 08:55 | 9.17849 | 123.27343 | 3985 ft | 190 kts | 17° |
| 2026-05-05 08:55 | 9.19123 | 123.27715 | 3743 ft | 192 kts | 19° |
| 2026-05-05 08:56 | 9.20371 | 123.28151 | 3530 ft | 192 kts | 20° |
| 2026-05-05 08:56 | 9.21631 | 123.28601 | 3332 ft | 191 kts | 19° |
| 2026-05-05 08:56 | 9.22894 | 123.29010 | 3115 ft | 191 kts | 18° |
| 2026-05-05 08:56 | 9.24164 | 123.29409 | 2891 ft | 191 kts | 17° |
| 2026-05-05 08:57 | 9.25430 | 123.29800 | 2741 ft | 188 kts | 17° |
| 2026-05-05 08:57 | 9.26679 | 123.30192 | 2557 ft | 188 kts | 17° |
| 2026-05-05 08:57 | 9.27939 | 123.30515 | 2395 ft | 185 kts | 11° |
| 2026-05-05 08:57 | 9.29211 | 123.30676 | 2228 ft | 184 kts | 3° |
| 2026-05-05 08:58 | 9.30479 | 123.30704 | 2132 ft | 179 kts | 0° |
| 2026-05-05 08:58 | 9.31709 | 123.30646 | 2090 ft | 175 kts | 356° |
| 2026-05-05 08:58 | 9.32906 | 123.30511 | 1983 ft | 173 kts | 352° |
| 2026-05-05 08:58 | 9.34080 | 123.30300 | 1884 ft | 167 kts | 349° |
| 2026-05-05 08:59 | 9.35139 | 123.29896 | 1777 ft | 161 kts | 324° |
| 2026-05-05 08:59 | 9.35751 | 123.28997 | 1701 ft | 156 kts | 287° |
| 2026-05-05 08:59 | 9.35869 | 123.27921 | 1581 ft | 147 kts | 276° |
| 2026-05-05 08:59 | 9.35944 | 123.26943 | 1369 ft | 133 kts | 275° |
| 2026-05-05 09:00 | 9.35758 | 123.26049 | 1140 ft | 130 kts | 235° |
| 2026-05-05 09:00 | 9.35003 | 123.25644 | 959 ft | 128 kts | 172° |
| 2026-05-05 09:00 | 9.34322 | 123.26114 | 808 ft | 116 kts | 116° |
| 2026-05-05 09:00 | 9.33968 | 123.26785 | 737 ft | 101 kts | 112° |
| 2026-05-05 09:01 | 9.33788 | 123.27212 | 672 ft | 99 kts | 107° |
| 2026-05-05 09:01 | 9.33598 | 123.27894 | 500 ft | 101 kts | 98° |
| 2026-05-05 09:01 | 9.33521 | 123.28579 | 323 ft | 96 kts | 93° |
| 2026-05-05 09:01 | 9.33475 | 123.29247 | 144 ft | 94 kts | 92° |
| 2026-05-05 09:02 | 9.33438 | 123.29860 | 45 ft | 71 kts | 93° |
| 2026-05-05 09:02 | 9.33410 | 123.30335 | 33 ft | 37 kts | 94° |
| 2026-05-05 09:02 | 9.33403 | 123.30472 | 33 ft | 17 kts | 85° |
| 2026-05-05 09:02 | 9.33394 | 123.30530 | 32 ft | 11 kts | 248° |
| 2026-05-05 09:03 | 9.33406 | 123.30412 | 33 ft | 22 kts | 275° |
| 2026-05-05 09:03 | 9.33414 | 123.30232 | 33 ft | 29 kts | 273° |
| 2026-05-05 09:03 | 9.33427 | 123.30016 | 40 ft | 32 kts | 274° |
| 2026-05-05 09:03 | 9.33434 | 123.29854 | 44 ft | 21 kts | 272° |
| 2026-05-05 09:04 | 9.33444 | 123.29690 | 45 ft | 25 kts | 275° |
| 2026-05-05 09:04 | 9.33456 | 123.29529 | 48 ft | 21 kts | 272° |
| 2026-05-05 09:04 | 9.33462 | 123.29394 | 45 ft | 14 kts | 274° |
| 2026-05-05 09:04 | 9.33431 | 123.29349 | 48 ft | 5 kts | 192° |
| 2026-05-05 09:05 | 9.33401 | 123.29364 | 47 ft | 4 kts | 95° |
| 2026-05-05 09:05 | 9.33401 | 123.29368 | 47 ft | 0 kts | 95° |